Time;durP1;ratioP1;P1;durP2;ratioP2;P2;SDS_P1;SDS_P2;PMS_P1;PMS_P2;Temp;Humidity;BMP_temperature;BMP_pressure;BME280_temperature;BME280_humidity;BME280_pressure;Samples;Min_cycle;Max_cycle;Signal;HPM_P1;HPM_P2
2022/07/02 00:00:59;;;;;;;2.27;1.90;;;15.20;71.10;;;;;;4851468;29;20441;-78
2022/07/02 00:03:33;;;;;;;3.60;1.70;;;15.20;71.80;;;;;;4853803;29;20826;-79
2022/07/02 00:06:02;;;;;;;5.17;2.47;;;15.20;72.30;;;;;;4835776;29;20502;-78
2022/07/02 00:08:30;;;;;;;2.73;1.73;;;15.20;72.20;;;;;;4838318;29;20478;-78
2022/07/02 00:10:58;;;;;;;1.77;1.67;;;15.20;71.70;;;;;;4839370;29;20452;-79
2022/07/02 00:13:27;;;;;;;2.50;2.30;;;15.20;70.10;;;;;;4840674;29;20929;-79
2022/07/02 00:15:54;;;;;;;3.07;2.73;;;15.20;72.30;;;;;;4833710;29;20605;-78
2022/07/02 00:18:22;;;;;;;4.22;2.17;;;15.10;73.50;;;;;;4841479;29;20549;-79
2022/07/02 00:20:50;;;;;;;3.97;2.40;;;15.00;74.40;;;;;;4849804;29;20218;-79
2022/07/02 00:23:17;;;;;;;7.13;2.60;;;14.90;75.00;;;;;;4849317;29;20462;-78
2022/07/02 00:25:48;;;;;;;2.70;2.23;;;14.90;76.00;;;;;;4856051;29;20454;-78
2022/07/02 00:28:17;;;;;;;2.13;2.03;;;14.80;76.30;;;;;;4859164;29;20491;-77
2022/07/02 00:30:46;;;;;;;2.17;2.08;;;14.70;77.30;;;;;;4847585;29;20433;-78
2022/07/02 00:33:14;;;;;;;2.30;2.15;;;14.60;78.60;;;;;;4845377;29;20571;-77
2022/07/02 00:35:42;;;;;;;2.58;2.20;;;14.60;78.40;;;;;;4850334;29;20242;-79
2022/07/02 00:38:11;;;;;;;3.05;2.20;;;14.60;78.70;;;;;;4852773;29;20683;-80
2022/07/02 00:40:39;;;;;;;4.80;2.17;;;14.60;77.80;;;;;;4847274;29;20216;-79
2022/07/02 00:43:06;;;;;;;2.72;2.25;;;14.50;77.50;;;;;;4846086;29;20637;-78
2022/07/02 00:45:35;;;;;;;2.33;1.65;;;14.50;77.30;;;;;;4845520;29;20236;-79
2022/07/02 00:48:02;;;;;;;2.00;1.80;;;14.40;77.40;;;;;;4843688;29;20214;-78
2022/07/02 00:50:31;;;;;;;4.70;2.03;;;14.30;78.10;;;;;;4845604;29;20222;-79
2022/07/02 00:52:58;;;;;;;2.00;1.90;;;14.30;78.90;;;;;;4848556;29;20217;-79
2022/07/02 00:55:26;;;;;;;1.92;1.83;;;14.20;79.60;;;;;;4844312;29;20241;-78
2022/07/02 00:57:54;;;;;;;2.55;2.00;;;14.10;80.00;;;;;;4845134;29;20411;-78
2022/07/02 01:00:21;;;;;;;2.30;2.13;;;14.00;81.40;;;;;;4844034;29;20221;-78
2022/07/02 01:03:00;;;;;;;6.57;2.10;;;14.10;81.70;;;;;;4849970;29;20623;-78
2022/07/02 01:05:37;;;;;;;2.30;2.10;;;14.00;82.30;;;;;;4852514;29;20757;-78
2022/07/02 01:10:57;;;;;;;4.32;2.60;;;14.00;84.20;;;;;;4850835;29;20592;-79
2022/07/02 01:13:36;;;;;;;5.68;2.35;;;13.90;84.10;;;;;;4852975;29;20365;-79
2022/07/02 01:16:03;;;;;;;2.50;2.30;;;13.90;84.10;;;;;;4855143;29;20241;-79
2022/07/02 01:18:30;;;;;;;2.33;2.17;;;13.90;85.20;;;;;;4857587;29;20277;-78
2022/07/02 01:20:57;;;;;;;3.63;2.17;;;13.80;86.90;;;;;;4853009;29;20218;-78
2022/07/02 01:23:25;;;;;;;2.97;2.67;;;13.80;86.50;;;;;;4846638;29;20234;-78
2022/07/02 01:25:54;;;;;;;2.45;2.28;;;13.80;86.90;;;;;;4847385;29;20253;-78
2022/07/02 01:28:22;;;;;;;4.20;2.38;;;13.80;87.80;;;;;;4853259;29;20233;-78
2022/07/02 01:30:50;;;;;;;2.65;2.08;;;13.80;88.10;;;;;;4850128;29;20218;-79
2022/07/02 01:33:18;;;;;;;2.45;2.25;;;13.70;87.90;;;;;;4858974;29;20218;-78
2022/07/02 01:35:44;;;;;;;2.45;2.00;;;13.70;88.10;;;;;;4864345;29;20226;-78
2022/07/02 01:38:11;;;;;;;2.10;2.00;;;13.70;88.10;;;;;;4863326;29;20254;-79
2022/07/02 01:40:39;;;;;;;2.80;2.40;;;13.70;88.20;;;;;;4864483;29;20225;-80
2022/07/02 01:43:06;;;;;;;3.33;2.20;;;13.80;87.70;;;;;;4864788;29;20194;-79
2022/07/02 01:45:33;;;;;;;2.90;2.25;;;13.70;88.10;;;;;;4863661;29;20233;-79
2022/07/02 01:48:00;;;;;;;3.78;2.45;;;13.70;88.10;;;;;;4864385;29;20304;-79
2022/07/02 01:50:27;;;;;;;2.90;2.47;;;13.60;88.70;;;;;;4859397;29;20245;-79
2022/07/02 01:52:56;;;;;;;2.92;2.50;;;13.60;89.60;;;;;;4860031;29;20282;-80
2022/07/02 01:55:24;;;;;;;2.85;2.03;;;13.60;89.70;;;;;;4861822;29;20345;-79
2022/07/02 01:57:53;;;;;;;3.38;2.17;;;13.60;89.20;;;;;;4862732;29;20280;-80
2022/07/02 02:00:20;;;;;;;2.60;2.30;;;13.60;90.10;;;;;;4867949;29;20213;-78
2022/07/02 02:02:47;;;;;;;2.75;2.42;;;13.50;90.10;;;;;;4865115;29;20233;-79
2022/07/02 02:05:14;;;;;;;2.78;2.00;;;13.50;90.30;;;;;;4862738;29;20273;-79
2022/07/02 02:07:41;;;;;;;3.53;2.28;;;13.50;90.90;;;;;;4859396;29;20247;-79
2022/07/02 02:10:09;;;;;;;3.42;2.00;;;13.40;90.80;;;;;;4862089;29;20213;-78
2022/07/02 02:12:36;;;;;;;4.90;2.13;;;13.40;90.90;;;;;;4863487;29;20241;-78
2022/07/02 02:15:05;;;;;;;2.70;2.50;;;13.40;91.50;;;;;;4866106;29;20304;-78
2022/07/02 02:17:32;;;;;;;2.78;1.77;;;13.30;91.80;;;;;;4867486;29;20216;-79
2022/07/02 02:19:59;;;;;;;3.40;2.70;;;13.30;91.90;;;;;;4866538;29;20194;-79
2022/07/02 02:22:26;;;;;;;2.53;2.33;;;13.30;92.00;;;;;;4866111;29;20232;-79
2022/07/02 02:24:53;;;;;;;2.20;2.10;;;13.30;91.60;;;;;;4864161;29;20238;-79
2022/07/02 02:27:20;;;;;;;2.33;2.00;;;13.30;91.40;;;;;;4864362;29;20225;-79
2022/07/02 02:29:46;;;;;;;1.90;1.80;;;13.30;91.40;;;;;;4866903;29;20269;-80
2022/07/02 02:32:16;;;;;;;2.35;2.10;;;13.30;91.20;;;;;;4866703;29;20244;-79
2022/07/02 02:34:43;;;;;;;5.15;3.55;;;13.30;91.40;;;;;;4865934;29;20481;-79
2022/07/02 02:37:09;;;;;;;2.45;2.25;;;13.20;91.70;;;;;;4859774;29;20245;-78
2022/07/02 02:39:36;;;;;;;3.47;2.08;;;13.20;91.90;;;;;;4848187;29;20214;-79
2022/07/02 02:42:03;;;;;;;3.25;2.20;;;13.20;92.50;;;;;;4857233;29;20244;-79
2022/07/02 02:44:30;;;;;;;2.78;2.40;;;13.10;92.60;;;;;;4851692;29;20222;-79
2022/07/02 02:46:57;;;;;;;2.88;2.30;;;13.10;92.60;;;;;;4851603;29;20250;-79
2022/07/02 02:49:25;;;;;;;2.72;2.40;;;13.10;92.60;;;;;;4854450;29;20427;-79
2022/07/02 02:51:52;;;;;;;2.75;2.20;;;13.10;93.00;;;;;;4853403;29;20273;-78
2022/07/02 02:54:19;;;;;;;2.70;2.50;;;13.00;93.00;;;;;;4852938;29;20297;-78
2022/07/02 02:56:46;;;;;;;2.67;2.38;;;13.10;93.40;;;;;;4849154;29;20240;-79
2022/07/02 02:59:13;;;;;;;3.88;2.67;;;13.10;92.70;;;;;;4856434;29;20216;-79
2022/07/02 03:01:40;;;;;;;2.40;1.85;;;13.00;92.60;;;;;;4855844;29;20290;-79
2022/07/02 03:04:07;;;;;;;4.07;2.17;;;13.10;92.60;;;;;;4850673;29;20235;-79
2022/07/02 03:06:35;;;;;;;2.05;1.95;;;13.10;92.60;;;;;;4848335;29;20241;-79
2022/07/02 03:09:02;;;;;;;2.65;2.42;;;13.10;92.50;;;;;;4850794;29;20278;-79
2022/07/02 03:11:30;;;;;;;2.95;2.25;;;13.10;92.10;;;;;;4860345;29;20213;-79
2022/07/02 03:13:57;;;;;;;2.25;2.05;;;13.00;92.10;;;;;;4857250;29;20213;-80
2022/07/02 03:16:24;;;;;;;3.25;2.35;;;13.10;92.10;;;;;;4855406;29;20268;-80
2022/07/02 03:18:51;;;;;;;2.20;2.10;;;13.10;92.00;;;;;;4851510;29;20598;-79
2022/07/02 03:21:17;;;;;;;3.00;2.08;;;13.00;91.80;;;;;;4850715;29;20300;-79
2022/07/02 03:23:46;;;;;;;3.38;2.35;;;13.00;91.80;;;;;;4848812;29;20210;-80
2022/07/02 03:26:12;;;;;;;2.90;2.53;;;13.00;92.00;;;;;;4848492;29;20324;-79
2022/07/02 03:28:39;;;;;;;2.67;1.92;;;13.00;92.00;;;;;;4856836;29;20220;-79
2022/07/02 03:31:06;;;;;;;6.40;2.50;;;13.00;92.50;;;;;;4854948;29;20217;-79
2022/07/02 03:33:33;;;;;;;3.03;2.22;;;13.00;91.30;;;;;;4851696;29;20220;-79
2022/07/02 03:36:00;;;;;;;2.63;1.70;;;13.00;91.00;;;;;;4863784;29;20297;-79
2022/07/02 03:38:28;;;;;;;2.22;2.05;;;13.00;90.70;;;;;;4862587;29;20281;-79
2022/07/02 03:40:56;;;;;;;2.95;2.03;;;13.00;90.70;;;;;;4863167;29;20213;-79
2022/07/02 03:43:23;;;;;;;2.08;1.98;;;13.00;90.60;;;;;;4862553;29;20245;-78
2022/07/02 03:45:50;;;;;;;2.00;1.80;;;13.00;90.40;;;;;;4858052;29;20245;-79
2022/07/02 03:48:17;;;;;;;1.98;1.88;;;13.10;90.40;;;;;;4861663;29;20214;-79
2022/07/02 03:50:44;;;;;;;2.22;2.03;;;13.00;90.30;;;;;;4862488;29;20281;-79
2022/07/02 03:53:11;;;;;;;1.90;1.75;;;13.00;90.40;;;;;;4863502;29;20214;-79
2022/07/02 03:55:38;;;;;;;2.38;2.05;;;13.10;90.30;;;;;;4863383;29;20241;-78
2022/07/02 03:58:07;;;;;;;2.45;1.77;;;13.10;90.10;;;;;;4863399;29;20218;-78
2022/07/02 04:00:34;;;;;;;1.92;1.75;;;13.10;89.40;;;;;;4863590;29;20229;-79
2022/07/02 04:03:01;;;;;;;1.42;1.33;;;13.20;89.40;;;;;;4863652;29;20202;-79
2022/07/02 04:05:28;;;;;;;4.45;1.70;;;13.30;87.60;;;;;;4864041;29;20230;-80
2022/07/02 04:07:55;;;;;;;2.20;2.00;;;13.30;85.00;;;;;;4865151;29;20202;-79
2022/07/02 04:10:22;;;;;;;4.22;1.70;;;13.40;84.60;;;;;;4859922;29;20285;-79
2022/07/02 04:12:49;;;;;;;5.60;1.70;;;13.50;83.70;;;;;;4862011;29;20256;-80
2022/07/02 04:15:17;;;;;;;2.15;1.70;;;13.50;82.60;;;;;;4857011;29;20248;-80
2022/07/02 04:17:44;;;;;;;1.60;1.50;;;13.50;82.60;;;;;;4857845;29;20669;-79
2022/07/02 04:20:12;;;;;;;2.25;1.52;;;13.60;82.40;;;;;;4856767;29;20210;-79
2022/07/02 04:22:39;;;;;;;1.80;1.70;;;13.60;81.50;;;;;;4858340;29;20285;-77
2022/07/02 04:25:07;;;;;;;2.15;1.58;;;13.70;81.20;;;;;;4843186;29;20691;-79
2022/07/02 04:27:34;;;;;;;1.88;1.60;;;13.80;79.70;;;;;;4843536;29;20221;-79
2022/07/02 04:30:00;;;;;;;2.20;1.63;;;13.80;78.00;;;;;;4849608;29;20224;-80
2022/07/02 04:32:29;;;;;;;1.75;1.65;;;13.90;76.00;;;;;;4856660;29;20420;-79
2022/07/02 04:34:55;;;;;;;1.80;1.70;;;14.00;75.60;;;;;;4850329;29;20229;-79
2022/07/02 04:37:22;;;;;;;1.60;1.50;;;14.10;75.70;;;;;;4845357;29;20218;-79
2022/07/02 04:39:49;;;;;;;3.25;1.67;;;14.30;74.70;;;;;;4843203;29;20555;-79
2022/07/02 04:42:16;;;;;;;1.45;1.35;;;14.30;73.00;;;;;;4842632;29;20220;-80
2022/07/02 04:44:43;;;;;;;1.50;1.40;;;14.40;73.10;;;;;;4845100;29;20329;-79
2022/07/02 04:47:10;;;;;;;2.40;1.70;;;14.50;71.70;;;;;;4846727;29;20217;-80
2022/07/02 04:49:38;;;;;;;1.58;1.48;;;14.60;71.80;;;;;;4847001;29;20285;-79
2022/07/02 04:52:06;;;;;;;3.10;1.80;;;14.70;71.80;;;;;;4844816;29;20246;-79
2022/07/02 04:54:33;;;;;;;1.27;1.27;;;14.90;71.00;;;;;;4843396;29;20269;-79
2022/07/02 04:57:00;;;;;;;2.50;1.70;;;15.20;68.50;;;;;;4844040;29;20325;-79
2022/07/02 04:59:26;;;;;;;2.33;1.63;;;15.50;65.90;;;;;;4847498;29;20778;-79
2022/07/02 05:01:53;;;;;;;1.50;1.40;;;15.60;63.80;;;;;;4845172;29;20960;-79
2022/07/02 05:04:20;;;;;;;1.20;1.13;;;16.40;63.70;;;;;;4848808;29;20548;-79
2022/07/02 05:06:48;;;;;;;2.40;1.37;;;17.30;57.00;;;;;;4853113;29;20445;-79
2022/07/02 05:09:16;;;;;;;1.20;1.10;;;17.80;54.30;;;;;;4849974;29;20454;-79
2022/07/02 05:11:42;;;;;;;1.27;1.17;;;18.70;50.40;;;;;;4848167;29;20473;-79
2022/07/02 05:14:09;;;;;;;1.13;1.03;;;19.00;47.90;;;;;;4849405;29;20470;-79
2022/07/02 05:16:36;;;;;;;2.73;1.40;;;18.60;50.00;;;;;;4865281;29;20548;-79
2022/07/02 05:19:03;;;;;;;1.37;1.20;;;18.40;50.20;;;;;;4861861;29;20531;-77
2022/07/02 05:21:30;;;;;;;3.50;1.17;;;18.20;51.30;;;;;;4852370;29;20457;-79
2022/07/02 05:23:58;;;;;;;1.33;1.23;;;18.50;50.70;;;;;;4853218;29;20783;-78
2022/07/02 05:26:26;;;;;;;1.13;1.10;;;18.30;50.80;;;;;;4856238;29;20474;-79
2022/07/02 05:28:52;;;;;;;2.57;1.03;;;18.30;52.10;;;;;;4852709;29;20433;-79
2022/07/02 05:31:19;;;;;;;1.27;1.17;;;18.60;50.90;;;;;;4858536;29;20433;-79
2022/07/02 05:33:46;;;;;;;1.43;1.37;;;18.60;51.10;;;;;;4849305;29;20966;-78
2022/07/02 05:36:14;;;;;;;1.40;1.30;;;19.20;48.10;;;;;;4852297;29;20501;-79
2022/07/02 05:38:40;;;;;;;1.10;1.10;;;19.10;49.20;;;;;;4857131;29;20534;-79
2022/07/02 05:41:09;;;;;;;2.33;1.10;;;19.20;48.10;;;;;;4854233;29;20524;-79
2022/07/02 05:43:36;;;;;;;2.13;1.03;;;18.80;50.20;;;;;;4854225;29;20437;-79
2022/07/02 05:46:03;;;;;;;1.50;1.40;;;18.70;50.40;;;;;;4853374;29;20489;-79
2022/07/02 05:48:30;;;;;;;3.77;1.50;;;19.20;48.70;;;;;;4854310;29;20462;-80
2022/07/02 05:50:57;;;;;;;3.20;1.30;;;19.90;48.80;;;;;;4860447;29;20964;-79
2022/07/02 05:53:23;;;;;;;3.33;1.40;;;20.80;45.10;;;;;;4859827;29;20530;-79
2022/07/02 05:55:50;;;;;;;1.80;1.20;;;19.80;48.70;;;;;;4854166;29;20993;-78
2022/07/02 05:58:19;;;;;;;2.40;1.37;;;19.80;48.70;;;;;;4849131;29;20466;-79
2022/07/02 06:00:46;;;;;;;2.53;1.40;;;20.70;45.60;;;;;;4847233;29;20475;-78
2022/07/02 06:03:12;;;;;;;2.50;1.30;;;20.50;46.00;;;;;;4846966;29;20441;-78
2022/07/02 06:08:23;;;;;;;2.87;1.30;;;21.40;44.30;;;;;;4847042;29;20430;-79
2022/07/02 06:10:50;;;;;;;3.27;1.13;;;21.40;44.00;;;;;;4849239;29;20869;-78
2022/07/02 06:13:19;;;;;;;2.13;1.00;;;20.70;45.10;;;;;;4846641;29;20737;-79
2022/07/02 06:15:46;;;;;;;3.70;1.90;;;20.20;46.80;;;;;;4861592;29;20474;-79
2022/07/02 06:18:12;;;;;;;1.70;1.10;;;19.90;48.80;;;;;;4879618;29;20465;-79
2022/07/02 06:20:40;;;;;;;1.27;0.93;;;20.20;46.70;;;;;;4861657;29;20452;-79
2022/07/02 06:23:07;;;;;;;1.30;1.20;;;20.10;48.90;;;;;;4854146;29;20531;-79
2022/07/02 06:25:34;;;;;;;1.30;1.20;;;20.70;47.30;;;;;;4852861;29;20555;-80
2022/07/02 06:28:01;;;;;;;1.50;1.27;;;21.10;44.60;;;;;;4852711;29;20482;-79
2022/07/02 06:30:29;;;;;;;1.97;1.57;;;20.50;47.30;;;;;;4854553;29;20441;-80
2022/07/02 06:32:56;;;;;;;1.20;1.10;;;21.10;46.00;;;;;;4848121;29;20855;-80
2022/07/02 06:35:23;;;;;;;1.37;1.13;;;21.40;45.20;;;;;;4865166;29;20502;-80
2022/07/02 06:37:50;;;;;;;1.70;1.23;;;21.80;44.70;;;;;;4857642;29;20521;-80
2022/07/02 06:40:17;;;;;;;2.50;1.20;;;22.40;43.30;;;;;;4857967;29;20459;-79
2022/07/02 06:42:44;;;;;;;2.00;1.10;;;22.40;42.10;;;;;;4853403;29;20488;-80
2022/07/02 06:45:11;;;;;;;1.40;1.30;;;21.90;44.40;;;;;;4854022;29;20492;-80
2022/07/02 06:47:42;;;;;;;1.20;1.13;;;22.40;43.10;;;;;;4850856;29;20469;-80
2022/07/02 06:50:10;;;;;;;3.00;1.20;;;21.90;44.70;;;;;;4865361;29;20437;-80
2022/07/02 06:52:39;;;;;;;4.37;1.30;;;22.70;42.80;;;;;;4867091;29;20461;-77
2022/07/02 06:55:06;;;;;;;2.23;1.30;;;22.50;43.40;;;;;;4866892;29;20485;-79
2022/07/02 06:57:35;;;;;;;3.73;1.30;;;22.80;43.20;;;;;;4860470;29;20501;-80
2022/07/02 07:00:02;;;;;;;1.27;1.17;;;21.90;45.80;;;;;;4855850;29;20475;-77
2022/07/02 07:02:29;;;;;;;2.67;1.27;;;22.10;45.40;;;;;;4862431;29;20471;-79
2022/07/02 07:04:57;;;;;;;5.53;1.30;;;22.30;44.60;;;;;;4850157;29;21153;-79
2022/07/02 07:07:27;;;;;;;5.13;1.47;;;21.60;47.10;;;;;;4853185;29;20515;-79
2022/07/02 07:09:54;;;;;;;1.77;1.37;;;21.00;48.90;;;;;;4850100;29;20448;-78
2022/07/02 07:12:21;;;;;;;5.33;1.60;;;20.40;50.60;;;;;;4848185;29;20586;-79
2022/07/02 07:14:48;;;;;;;1.97;1.43;;;20.10;52.70;;;;;;4854354;29;20530;-79
2022/07/02 07:17:16;;;;;;;1.73;1.63;;;20.30;52.60;;;;;;4861453;29;20493;-78
2022/07/02 07:19:43;;;;;;;1.30;1.20;;;20.20;53.20;;;;;;4865389;29;20486;-80
2022/07/02 07:22:11;;;;;;;1.57;1.47;;;20.60;52.70;;;;;;4846573;29;20415;-80
2022/07/02 07:24:38;;;;;;;1.70;1.37;;;20.70;51.00;;;;;;4855822;29;20475;-80
2022/07/02 07:27:05;;;;;;;3.90;1.33;;;20.70;51.30;;;;;;4866378;29;20446;-80
2022/07/02 07:29:32;;;;;;;1.93;1.27;;;20.70;50.90;;;;;;4868379;29;20470;-79
2022/07/02 07:31:59;;;;;;;1.47;1.10;;;20.80;51.80;;;;;;4884748;29;20491;-79
2022/07/02 07:34:26;;;;;;;2.57;1.20;;;21.00;49.80;;;;;;4875740;29;20572;-79
2022/07/02 07:36:55;;;;;;;1.37;0.90;;;21.20;50.00;;;;;;4870747;29;20918;-78
2022/07/02 07:39:23;;;;;;;1.30;1.20;;;21.20;47.70;;;;;;4874704;29;20462;-79
2022/07/02 07:41:50;;;;;;;2.00;1.80;;;21.10;49.50;;;;;;4865277;29;20509;-80
2022/07/02 07:44:17;;;;;;;1.70;1.37;;;21.10;49.90;;;;;;4853616;29;20557;-81
2022/07/02 07:46:44;;;;;;;1.23;1.07;;;21.40;47.60;;;;;;4852293;29;20478;-80
2022/07/02 07:49:17;;;;;;;2.20;1.10;;;21.30;47.10;;;;;;4857541;29;20464;-80
2022/07/02 07:51:44;;;;;;;1.00;1.00;;;21.30;45.50;;;;;;4852390;29;20448;-80
2022/07/02 07:54:11;;;;;;;4.40;1.00;;;21.50;45.10;;;;;;4845533;29;20458;-79
2022/07/02 07:56:41;;;;;;;1.43;1.20;;;21.60;44.60;;;;;;4852966;29;20491;-79
2022/07/02 07:59:08;;;;;;;2.40;1.30;;;21.60;44.50;;;;;;4855882;29;20475;-80
2022/07/02 08:01:35;;;;;;;1.13;1.00;;;21.50;44.50;;;;;;4847427;29;20467;-80
2022/07/02 08:04:01;;;;;;;2.80;0.90;;;21.50;44.90;;;;;;4848527;29;20466;-79
2022/07/02 08:06:28;;;;;;;1.37;1.07;;;21.80;42.30;;;;;;4850362;29;20459;-79
2022/07/02 08:08:55;;;;;;;0.80;0.80;;;21.90;42.70;;;;;;4857198;29;20458;-79
2022/07/02 08:11:22;;;;;;;2.10;0.90;;;21.80;40.60;;;;;;4860013;29;20443;-80
2022/07/02 08:13:50;;;;;;;1.53;1.03;;;21.80;40.50;;;;;;4861621;29;20463;-79
2022/07/02 08:16:17;;;;;;;4.57;1.00;;;21.80;40.50;;;;;;4859723;29;20479;-80
2022/07/02 08:18:44;;;;;;;2.00;1.00;;;21.80;40.50;;;;;;4861544;29;20429;-80
2022/07/02 08:21:11;;;;;;;1.53;0.90;;;22.00;39.50;;;;;;4862735;29;20482;-80
2022/07/02 08:23:38;;;;;;;2.43;0.90;;;22.10;39.30;;;;;;4854129;29;20463;-79
2022/07/02 08:26:04;;;;;;;0.83;0.77;;;22.10;39.20;;;;;;4855595;29;20616;-80
2022/07/02 08:28:31;;;;;;;1.70;0.80;;;22.10;38.50;;;;;;4857328;29;20500;-80
2022/07/02 08:31:02;;;;;;;0.90;0.90;;;22.30;37.70;;;;;;4860022;29;20489;-80
2022/07/02 08:33:29;;;;;;;1.93;1.10;;;22.50;36.00;;;;;;4859978;29;20455;-80
2022/07/02 08:35:56;;;;;;;1.17;0.87;;;22.40;35.80;;;;;;4863185;29;20494;-79
2022/07/02 08:38:23;;;;;;;1.23;1.00;;;22.60;35.70;;;;;;4849646;29;20563;-79
2022/07/02 08:40:50;;;;;;;1.33;0.70;;;22.80;34.90;;;;;;4848502;29;20830;-80
2022/07/02 08:43:18;;;;;;;1.23;0.80;;;22.90;34.60;;;;;;4853258;29;20467;-79
2022/07/02 08:45:45;;;;;;;1.57;1.20;;;22.80;34.00;;;;;;4854989;29;20484;-79
2022/07/02 08:48:14;;;;;;;1.07;0.97;;;22.90;34.20;;;;;;4851616;29;20466;-80
2022/07/02 08:50:41;;;;;;;1.17;1.07;;;22.90;34.20;;;;;;4857176;29;20491;-81
2022/07/02 08:53:09;;;;;;;2.33;0.80;;;23.10;34.70;;;;;;4853695;29;20950;-81
2022/07/02 08:55:37;;;;;;;2.10;0.80;;;23.10;33.30;;;;;;4850508;29;20493;-80
2022/07/02 08:58:05;;;;;;;0.87;0.87;;;23.10;33.20;;;;;;4855508;29;20586;-80
2022/07/02 09:00:33;;;;;;;0.90;0.90;;;23.00;33.30;;;;;;4867860;29;20627;-81
2022/07/02 09:03:00;;;;;;;1.13;0.80;;;22.90;33.10;;;;;;4869669;29;20454;-80
2022/07/02 09:05:30;;;;;;;1.10;0.80;;;23.10;33.30;;;;;;4868896;29;20491;-80
2022/07/02 09:07:58;;;;;;;11.43;1.00;;;23.20;32.60;;;;;;4849345;29;20584;-79
2022/07/02 09:10:26;;;;;;;1.60;1.30;;;23.10;32.90;;;;;;4854426;29;20464;-79
2022/07/02 09:12:53;;;;;;;0.80;0.80;;;23.30;32.30;;;;;;4859827;29;20536;-79
2022/07/02 09:15:21;;;;;;;3.30;1.17;;;23.20;31.50;;;;;;4858052;29;20481;-80
2022/07/02 09:17:48;;;;;;;3.67;0.93;;;23.30;33.20;;;;;;4858875;29;20503;-78
2022/07/02 09:20:16;;;;;;;1.93;0.77;;;23.30;32.50;;;;;;4859855;29;20477;-80
2022/07/02 09:22:46;;;;;;;1.10;1.00;;;23.60;33.10;;;;;;4863365;29;20459;-80
2022/07/02 09:25:15;;;;;;;0.80;0.80;;;23.70;32.50;;;;;;4866875;29;20448;-79
2022/07/02 09:27:43;;;;;;;2.27;1.30;;;23.30;33.80;;;;;;4865922;29;20464;-80
2022/07/02 09:30:11;;;;;;;5.83;1.07;;;22.90;34.00;;;;;;4854936;29;20493;-80
2022/07/02 09:32:40;;;;;;;0.90;0.90;;;23.30;33.70;;;;;;4847547;29;20467;-79
2022/07/02 09:35:08;;;;;;;1.03;0.90;;;23.30;33.70;;;;;;4853319;29;20596;-77
2022/07/02 09:37:35;;;;;;;1.27;1.00;;;23.60;33.90;;;;;;4858627;29;20501;-77
2022/07/02 09:40:04;;;;;;;10.90;1.40;;;23.60;33.00;;;;;;4857925;29;20469;-76
2022/07/02 09:42:32;;;;;;;1.30;0.93;;;23.50;32.50;;;;;;4855491;29;20657;-76
2022/07/02 09:45:01;;;;;;;3.20;0.93;;;23.50;33.20;;;;;;4863153;29;20540;-79
2022/07/02 09:47:32;;;;;;;1.20;0.97;;;23.80;33.10;;;;;;4864146;29;20526;-77
2022/07/02 09:50:03;;;;;;;1.00;1.00;;;24.00;32.20;;;;;;4863701;29;20456;-78
2022/07/02 09:52:30;;;;;;;0.87;0.87;;;24.20;32.00;;;;;;4870275;29;20460;-78
2022/07/02 09:54:57;;;;;;;2.20;2.03;;;24.30;32.20;;;;;;4872037;29;20454;-77
2022/07/02 09:57:26;;;;;;;0.83;0.80;;;23.90;32.10;;;;;;4853858;29;20986;-78
2022/07/02 09:59:53;;;;;;;4.00;1.20;;;24.20;32.60;;;;;;4854327;29;20477;-77
2022/07/02 10:02:23;;;;;;;2.57;1.07;;;24.30;31.00;;;;;;4853794;29;20451;-78
2022/07/02 10:04:55;;;;;;;3.67;0.90;;;24.30;31.40;;;;;;4847050;29;20479;-78
2022/07/02 10:07:24;;;;;;;1.57;0.80;;;24.50;30.80;;;;;;4845142;29;20463;-77
2022/07/02 10:09:51;;;;;;;0.70;0.70;;;24.80;29.70;;;;;;4850116;29;20545;-77
2022/07/02 10:12:19;;;;;;;4.83;1.10;;;24.40;29.10;;;;;;4846738;29;20429;-76
2022/07/02 10:14:48;;;;;;;1.33;0.70;;;24.10;29.60;;;;;;4845108;29;21113;-78
2022/07/02 10:17:16;;;;;;;0.70;0.70;;;24.40;28.90;;;;;;4844131;29;20484;-77
2022/07/02 10:19:43;;;;;;;0.67;0.67;;;24.60;29.10;;;;;;4844533;29;20519;-78
2022/07/02 10:22:10;;;;;;;0.70;0.70;;;24.80;28.30;;;;;;4846540;29;20475;-77
2022/07/02 10:24:38;;;;;;;0.73;0.70;;;25.10;28.20;;;;;;4845386;29;20497;-78
2022/07/02 10:27:05;;;;;;;0.77;0.63;;;25.20;26.80;;;;;;4845482;29;20455;-77
2022/07/02 10:29:32;;;;;;;1.17;0.90;;;25.00;27.30;;;;;;4845075;29;20478;-77
2022/07/02 10:32:11;;;;;;;0.93;0.60;;;25.00;27.80;;;;;;4845283;29;20448;-78
2022/07/02 10:34:52;;;;;;;0.70;0.60;;;24.90;26.90;;;;;;4845264;29;20492;-78
2022/07/02 10:37:19;;;;;;;0.63;0.60;;;24.80;26.10;;;;;;4845620;29;20530;-76
2022/07/02 10:39:46;;;;;;;1.47;0.87;;;24.70;26.20;;;;;;4845426;29;20474;-77
2022/07/02 10:42:13;;;;;;;4.10;0.80;;;24.60;26.80;;;;;;4844521;29;20465;-77
2022/07/02 10:44:40;;;;;;;0.70;0.70;;;24.90;26.00;;;;;;4846066;29;20581;-77
2022/07/02 10:47:19;;;;;;;2.00;0.73;;;24.80;26.30;;;;;;4851683;29;20441;-78
2022/07/02 10:49:56;;;;;;;2.80;0.80;;;25.00;26.10;;;;;;4856034;29;20440;-77
2022/07/02 10:52:38;;;;;;;8.23;0.90;;;24.80;25.50;;;;;;4829815;29;20483;-78
2022/07/02 10:55:06;;;;;;;1.00;0.70;;;25.00;25.40;;;;;;4829016;29;20480;-77
2022/07/02 10:57:33;;;;;;;2.10;1.10;;;25.20;24.40;;;;;;4829110;29;20523;-78
2022/07/02 11:00:00;;;;;;;1.83;1.00;;;25.50;24.60;;;;;;4833536;29;20495;-78
2022/07/02 11:02:35;;;;;;;1.87;0.70;;;25.40;24.50;;;;;;4846467;29;20445;-78
2022/07/02 11:05:10;;;;;;;2.70;0.87;;;25.00;24.30;;;;;;4846089;29;20531;-78
2022/07/02 11:07:43;;;;;;;1.03;0.80;;;25.40;24.80;;;;;;4845609;29;20454;-78
2022/07/02 11:10:11;;;;;;;0.53;0.53;;;25.70;23.10;;;;;;4847009;29;20479;-78
2022/07/02 11:12:47;;;;;;;2.67;0.83;;;25.50;23.70;;;;;;4845364;29;20523;-77
2022/07/02 11:15:19;;;;;;;0.73;0.73;;;25.80;24.20;;;;;;4845902;29;20936;-78
2022/07/02 11:17:51;;;;;;;1.50;1.03;;;25.80;24.70;;;;;;4845242;29;21039;-78
2022/07/02 11:20:25;;;;;;;1.63;1.00;;;26.10;24.00;;;;;;4845983;29;20435;-77
2022/07/02 11:22:52;;;;;;;1.20;1.10;;;25.70;24.70;;;;;;4844611;29;20559;-77
2022/07/02 11:25:19;;;;;;;1.30;0.77;;;26.00;23.80;;;;;;4844717;29;20657;-77
2022/07/02 11:27:56;;;;;;;0.80;0.80;;;26.40;22.90;;;;;;4844201;29;20435;-77
2022/07/02 11:30:25;;;;;;;3.50;0.70;;;26.40;22.90;;;;;;4845062;29;20905;-76
2022/07/02 11:32:54;;;;;;;4.30;0.80;;;25.80;23.50;;;;;;4844460;29;20567;-76
2022/07/02 11:35:21;;;;;;;3.33;0.80;;;25.80;23.10;;;;;;4844018;29;20570;-77
2022/07/02 11:37:48;;;;;;;0.77;0.60;;;25.60;24.00;;;;;;4844799;29;20499;-77
2022/07/02 11:40:21;;;;;;;1.83;0.80;;;25.90;23.20;;;;;;4844744;29;20469;-77
2022/07/02 11:42:48;;;;;;;0.77;0.70;;;25.90;23.70;;;;;;4849740;29;20430;-77
2022/07/02 11:45:15;;;;;;;2.97;0.87;;;25.80;23.70;;;;;;4850268;29;20648;-77
2022/07/02 11:47:46;;;;;;;1.63;0.60;;;26.00;23.80;;;;;;4852505;29;20473;-77
2022/07/02 11:50:14;;;;;;;0.67;0.67;;;25.80;24.00;;;;;;4859070;29;20461;-77
2022/07/02 11:52:42;;;;;;;1.07;0.90;;;25.60;24.60;;;;;;4859064;29;20456;-77
2022/07/02 11:55:15;;;;;;;2.00;1.23;;;25.90;23.80;;;;;;4853971;29;20518;-76
2022/07/02 11:57:43;;;;;;;0.60;0.60;;;26.40;22.40;;;;;;4844830;29;20455;-77
2022/07/02 12:00:11;;;;;;;1.37;0.80;;;26.60;20.90;;;;;;4843810;29;20789;-78
2022/07/02 12:02:38;;;;;;;0.60;0.60;;;26.30;22.20;;;;;;4847350;29;20435;-76
2022/07/02 12:05:16;;;;;;;1.80;0.53;;;26.30;22.20;;;;;;4847761;29;20572;-78
2022/07/02 12:07:44;;;;;;;0.70;0.70;;;26.00;22.70;;;;;;4848786;29;20473;-79
2022/07/02 12:10:11;;;;;;;1.40;0.77;;;25.90;23.20;;;;;;4848716;29;20441;-76
2022/07/02 12:12:38;;;;;;;1.90;0.93;;;26.30;23.40;;;;;;4850589;29;20458;-78
2022/07/02 12:15:06;;;;;;;1.40;0.90;;;26.70;22.40;;;;;;4846115;29;20480;-76
2022/07/02 12:17:35;;;;;;;1.17;0.80;;;27.10;21.20;;;;;;4846911;29;20480;-76
2022/07/02 12:20:03;;;;;;;0.70;0.70;;;27.20;20.50;;;;;;4848045;29;20510;-76
2022/07/02 12:22:33;;;;;;;0.60;0.60;;;26.30;22.10;;;;;;4842935;29;20459;-76
2022/07/02 12:25:01;;;;;;;0.80;0.70;;;26.50;22.50;;;;;;4841179;29;20523;-73
2022/07/02 12:27:28;;;;;;;0.80;0.80;;;26.80;21.00;;;;;;4841391;29;20463;-77
2022/07/02 12:29:56;;;;;;;1.80;0.67;;;26.90;21.50;;;;;;4841190;29;20436;-76
2022/07/02 12:32:24;;;;;;;0.70;0.57;;;26.70;21.00;;;;;;4842483;29;20462;-75
2022/07/02 12:34:53;;;;;;;0.70;0.67;;;26.50;21.30;;;;;;4857396;29;20503;-76
2022/07/02 12:37:22;;;;;;;2.17;0.80;;;27.00;21.50;;;;;;4844171;29;20487;-76
2022/07/02 12:39:57;;;;;;;0.50;0.50;;;27.10;20.40;;;;;;4847372;29;20478;-76
2022/07/02 12:42:24;;;;;;;0.80;0.80;;;26.80;20.70;;;;;;4849648;29;20448;-75
2022/07/02 12:44:59;;;;;;;0.67;0.67;;;27.00;20.20;;;;;;4847923;29;20460;-76
2022/07/02 12:47:30;;;;;;;0.77;0.70;;;26.90;19.60;;;;;;4846580;29;20479;-75
2022/07/02 12:50:00;;;;;;;2.57;1.00;;;26.90;19.70;;;;;;4848215;29;20971;-76
2022/07/02 12:52:31;;;;;;;0.70;0.70;;;27.00;20.50;;;;;;4845869;29;20520;-75
2022/07/02 12:55:00;;;;;;;0.70;0.70;;;26.50;19.30;;;;;;4845824;29;20462;-75
2022/07/02 12:57:27;;;;;;;1.27;0.60;;;26.70;19.70;;;;;;4842566;29;20452;-74